sensor_id;sensor_type;location;lat;lon;timestamp;pressure;altitude;pressure_sealevel;temperature;humidity
14117;BME280;7137;51.436;6.544;2023-07-29T00:00:05;100337.22;;;19.93;100.00
14117;BME280;7137;51.436;6.544;2023-07-29T00:03:07;100334.06;;;19.88;100.00
14117;BME280;7137;51.436;6.544;2023-07-29T00:06:09;100335.53;;;19.92;100.00
14117;BME280;7137;51.436;6.544;2023-07-29T00:09:11;100333.47;;;19.95;100.00
14117;BME280;7137;51.436;6.544;2023-07-29T00:12:12;100326.34;;;19.84;100.00
14117;BME280;7137;51.436;6.544;2023-07-29T00:15:15;100327.94;;;19.98;100.00
14117;BME280;7137;51.436;6.544;2023-07-29T00:18:17;100326.88;;;20.01;100.00
14117;BME280;7137;51.436;6.544;2023-07-29T00:21:18;100328.19;;;20.06;100.00
14117;BME280;7137;51.436;6.544;2023-07-29T00:24:20;100320.38;;;20.05;100.00
14117;BME280;7137;51.436;6.544;2023-07-29T00:27:22;100324.56;;;20.07;100.00
14117;BME280;7137;51.436;6.544;2023-07-29T00:30:24;100307.69;;;20.08;100.00
14117;BME280;7137;51.436;6.544;2023-07-29T00:33:26;100314.19;;;19.93;100.00
14117;BME280;7137;51.436;6.544;2023-07-29T00:36:28;100303.34;;;19.96;100.00
14117;BME280;7137;51.436;6.544;2023-07-29T00:39:29;100309.88;;;20.03;100.00
14117;BME280;7137;51.436;6.544;2023-07-29T00:42:31;100318.44;;;20.07;100.00
14117;BME280;7137;51.436;6.544;2023-07-29T00:45:34;100308.53;;;20.09;100.00
14117;BME280;7137;51.436;6.544;2023-07-29T00:48:36;100314.22;;;20.15;100.00
14117;BME280;7137;51.436;6.544;2023-07-29T00:51:38;100311.78;;;20.12;100.00
14117;BME280;7137;51.436;6.544;2023-07-29T00:54:40;100316.75;;;20.17;100.00
14117;BME280;7137;51.436;6.544;2023-07-29T00:57:41;100307.34;;;20.24;100.00
14117;BME280;7137;51.436;6.544;2023-07-29T01:00:50;100313.75;;;20.22;100.00
14117;BME280;7137;51.436;6.544;2023-07-29T01:03:51;100302.16;;;20.23;100.00
14117;BME280;7137;51.436;6.544;2023-07-29T01:07:00;100297.56;;;20.25;100.00
14117;BME280;7137;51.436;6.544;2023-07-29T01:10:10;100291.22;;;20.27;100.00
14117;BME280;7137;51.436;6.544;2023-07-29T01:13:19;100293.38;;;20.33;100.00
14117;BME280;7137;51.436;6.544;2023-07-29T01:16:30;100284.31;;;20.36;100.00
14117;BME280;7137;51.436;6.544;2023-07-29T01:19:48;100286.59;;;20.40;100.00
14117;BME280;7137;51.436;6.544;2023-07-29T01:22:55;100286.97;;;20.36;100.00
14117;BME280;7137;51.436;6.544;2023-07-29T01:25:58;100288.06;;;20.33;100.00
14117;BME280;7137;51.436;6.544;2023-07-29T01:29:00;100288.44;;;20.29;100.00
14117;BME280;7137;51.436;6.544;2023-07-29T01:32:06;100289.63;;;20.13;100.00
14117;BME280;7137;51.436;6.544;2023-07-29T01:35:15;100279.00;;;20.25;100.00
14117;BME280;7137;51.436;6.544;2023-07-29T01:38:21;100287.81;;;20.36;100.00
14117;BME280;7137;51.436;6.544;2023-07-29T01:41:27;100285.75;;;20.40;100.00
14117;BME280;7137;51.436;6.544;2023-07-29T01:44:30;100285.56;;;20.43;100.00
14117;BME280;7137;51.436;6.544;2023-07-29T01:47:32;100274.81;;;20.44;100.00
14117;BME280;7137;51.436;6.544;2023-07-29T01:50:33;100271.75;;;20.38;100.00
14117;BME280;7137;51.436;6.544;2023-07-29T01:53:35;100273.97;;;20.44;100.00
14117;BME280;7137;51.436;6.544;2023-07-29T01:56:38;100275.16;;;20.51;100.00
14117;BME280;7137;51.436;6.544;2023-07-29T01:59:39;100275.53;;;20.47;100.00
14117;BME280;7137;51.436;6.544;2023-07-29T02:02:41;100270.50;;;20.43;100.00
14117;BME280;7137;51.436;6.544;2023-07-29T02:05:43;100264.56;;;20.51;100.00
14117;BME280;7137;51.436;6.544;2023-07-29T02:08:45;100261.19;;;20.15;100.00
14117;BME280;7137;51.436;6.544;2023-07-29T02:11:48;100264.06;;;20.35;100.00
14117;BME280;7137;51.436;6.544;2023-07-29T02:14:49;100266.34;;;20.39;100.00
14117;BME280;7137;51.436;6.544;2023-07-29T02:17:51;100268.41;;;20.25;100.00
14117;BME280;7137;51.436;6.544;2023-07-29T02:20:53;100272.03;;;20.35;100.00
14117;BME280;7137;51.436;6.544;2023-07-29T02:23:54;100269.88;;;20.29;100.00
14117;BME280;7137;51.436;6.544;2023-07-29T02:26:57;100263.72;;;20.28;100.00
14117;BME280;7137;51.436;6.544;2023-07-29T02:29:59;100266.72;;;20.24;100.00
14117;BME280;7137;51.436;6.544;2023-07-29T02:33:00;100270.09;;;20.26;100.00
14117;BME280;7137;51.436;6.544;2023-07-29T02:36:02;100263.09;;;20.25;100.00
14117;BME280;7137;51.436;6.544;2023-07-29T02:39:04;100261.66;;;20.32;100.00
14117;BME280;7137;51.436;6.544;2023-07-29T02:42:07;100269.25;;;20.36;100.00
14117;BME280;7137;51.436;6.544;2023-07-29T02:45:09;100277.69;;;20.30;100.00
14117;BME280;7137;51.436;6.544;2023-07-29T02:48:11;100268.53;;;20.23;100.00
14117;BME280;7137;51.436;6.544;2023-07-29T02:51:13;100275.75;;;20.32;100.00
14117;BME280;7137;51.436;6.544;2023-07-29T02:54:15;100280.81;;;20.35;100.00
14117;BME280;7137;51.436;6.544;2023-07-29T02:57:18;100284.81;;;20.30;100.00
14117;BME280;7137;51.436;6.544;2023-07-29T03:00:19;100284.31;;;19.91;100.00
14117;BME280;7137;51.436;6.544;2023-07-29T03:03:21;100279.50;;;19.85;100.00
14117;BME280;7137;51.436;6.544;2023-07-29T03:06:23;100282.63;;;20.01;100.00
14117;BME280;7137;51.436;6.544;2023-07-29T03:09:25;100287.16;;;19.77;100.00
14117;BME280;7137;51.436;6.544;2023-07-29T03:12:28;100268.13;;;19.72;100.00
14117;BME280;7137;51.436;6.544;2023-07-29T03:15:29;100250.53;;;19.82;100.00
14117;BME280;7137;51.436;6.544;2023-07-29T03:18:31;100241.63;;;19.83;100.00
14117;BME280;7137;51.436;6.544;2023-07-29T03:21:32;100250.41;;;19.61;100.00
14117;BME280;7137;51.436;6.544;2023-07-29T03:24:34;100262.84;;;19.72;100.00
14117;BME280;7137;51.436;6.544;2023-07-29T03:27:37;100253.78;;;19.63;100.00
14117;BME280;7137;51.436;6.544;2023-07-29T03:30:40;100264.13;;;19.66;100.00
14117;BME280;7137;51.436;6.544;2023-07-29T03:33:41;100262.69;;;19.62;100.00
14117;BME280;7137;51.436;6.544;2023-07-29T03:36:43;100253.72;;;19.52;100.00
14117;BME280;7137;51.436;6.544;2023-07-29T03:39:46;100250.53;;;19.60;100.00
14117;BME280;7137;51.436;6.544;2023-07-29T03:42:49;100260.53;;;19.32;100.00
14117;BME280;7137;51.436;6.544;2023-07-29T03:45:50;100263.06;;;19.34;100.00
14117;BME280;7137;51.436;6.544;2023-07-29T03:48:52;100270.41;;;19.30;100.00
14117;BME280;7137;51.436;6.544;2023-07-29T03:51:53;100260.16;;;19.37;100.00
14117;BME280;7137;51.436;6.544;2023-07-29T03:54:55;100256.97;;;19.44;100.00
14117;BME280;7137;51.436;6.544;2023-07-29T03:57:58;100249.84;;;19.45;100.00
14117;BME280;7137;51.436;6.544;2023-07-29T04:01:00;100256.91;;;19.33;100.00
14117;BME280;7137;51.436;6.544;2023-07-29T04:04:02;100256.13;;;19.44;100.00
14117;BME280;7137;51.436;6.544;2023-07-29T04:07:04;100246.69;;;19.40;100.00
14117;BME280;7137;51.436;6.544;2023-07-29T04:10:07;100245.63;;;19.53;100.00
14117;BME280;7137;51.436;6.544;2023-07-29T04:13:10;100252.22;;;19.61;100.00
14117;BME280;7137;51.436;6.544;2023-07-29T04:16:12;100268.28;;;19.46;100.00
14117;BME280;7137;51.436;6.544;2023-07-29T04:19:13;100273.22;;;19.51;100.00
14117;BME280;7137;51.436;6.544;2023-07-29T04:22:16;100283.66;;;19.41;100.00
14117;BME280;7137;51.436;6.544;2023-07-29T04:25:18;100290.81;;;19.17;100.00
14117;BME280;7137;51.436;6.544;2023-07-29T04:28:21;100299.34;;;18.96;100.00
14117;BME280;7137;51.436;6.544;2023-07-29T04:31:22;100295.72;;;18.86;100.00
14117;BME280;7137;51.436;6.544;2023-07-29T04:34:24;100306.19;;;18.88;100.00
14117;BME280;7137;51.436;6.544;2023-07-29T04:37:26;100321.00;;;18.90;100.00
14117;BME280;7137;51.436;6.544;2023-07-29T04:40:27;100311.13;;;18.92;100.00
14117;BME280;7137;51.436;6.544;2023-07-29T04:43:31;100301.00;;;19.10;100.00
14117;BME280;7137;51.436;6.544;2023-07-29T04:46:33;100285.44;;;19.06;100.00
14117;BME280;7137;51.436;6.544;2023-07-29T04:49:35;100274.13;;;19.04;100.00
14117;BME280;7137;51.436;6.544;2023-07-29T04:52:36;100254.06;;;19.12;100.00
14117;BME280;7137;51.436;6.544;2023-07-29T04:55:38;100254.25;;;19.33;100.00
14117;BME280;7137;51.436;6.544;2023-07-29T04:58:41;100262.19;;;19.57;100.00
14117;BME280;7137;51.436;6.544;2023-07-29T05:01:42;100274.53;;;19.80;100.00
14117;BME280;7137;51.436;6.544;2023-07-29T05:04:44;100262.38;;;19.89;99.84
14117;BME280;7137;51.436;6.544;2023-07-29T05:07:45;100270.31;;;19.89;99.89
14117;BME280;7137;51.436;6.544;2023-07-29T05:10:48;100277.91;;;19.94;100.00
14117;BME280;7137;51.436;6.544;2023-07-29T05:13:51;100294.28;;;19.76;100.00
14117;BME280;7137;51.436;6.544;2023-07-29T05:16:53;100317.31;;;19.52;99.49
14117;BME280;7137;51.436;6.544;2023-07-29T05:19:54;100320.16;;;19.62;100.00
14117;BME280;7137;51.436;6.544;2023-07-29T05:22:56;100321.28;;;19.46;100.00
14117;BME280;7137;51.436;6.544;2023-07-29T05:25:57;100317.25;;;19.65;100.00
14117;BME280;7137;51.436;6.544;2023-07-29T05:29:00;100322.78;;;19.62;99.06
14117;BME280;7137;51.436;6.544;2023-07-29T05:32:02;100328.84;;;19.75;98.36
14117;BME280;7137;51.436;6.544;2023-07-29T05:35:04;100315.25;;;19.79;99.09
14117;BME280;7137;51.436;6.544;2023-07-29T05:38:06;100334.47;;;20.05;96.57
14117;BME280;7137;51.436;6.544;2023-07-29T05:41:09;100324.56;;;19.85;96.62
14117;BME280;7137;51.436;6.544;2023-07-29T05:44:12;100326.25;;;19.97;96.63
14117;BME280;7137;51.436;6.544;2023-07-29T05:47:13;100335.66;;;20.12;96.36
14117;BME280;7137;51.436;6.544;2023-07-29T05:50:15;100341.41;;;19.84;96.38
14117;BME280;7137;51.436;6.544;2023-07-29T05:53:16;100345.09;;;19.70;97.22
14117;BME280;7137;51.436;6.544;2023-07-29T05:56:18;100344.31;;;19.92;96.50
14117;BME280;7137;51.436;6.544;2023-07-29T05:59:21;100340.50;;;19.61;97.80
14117;BME280;7137;51.436;6.544;2023-07-29T06:02:22;100351.56;;;19.90;97.41
14117;BME280;7137;51.436;6.544;2023-07-29T06:05:24;100347.91;;;19.80;97.90
14117;BME280;7137;51.436;6.544;2023-07-29T06:08:26;100347.22;;;19.89;96.18
14117;BME280;7137;51.436;6.544;2023-07-29T06:11:28;100361.34;;;20.12;93.87
14117;BME280;7137;51.436;6.544;2023-07-29T06:14:31;100358.72;;;20.34;92.50
14117;BME280;7137;51.436;6.544;2023-07-29T06:17:33;100360.66;;;20.21;92.88
14117;BME280;7137;51.436;6.544;2023-07-29T06:20:34;100362.88;;;19.92;93.37
14117;BME280;7137;51.436;6.544;2023-07-29T06:23:36;100346.72;;;19.95;93.05
14117;BME280;7137;51.436;6.544;2023-07-29T06:26:38;100351.41;;;19.80;93.10
14117;BME280;7137;51.436;6.544;2023-07-29T06:29:41;100354.38;;;20.22;92.93
14117;BME280;7137;51.436;6.544;2023-07-29T06:32:42;100369.09;;;20.26;91.87
14117;BME280;7137;51.436;6.544;2023-07-29T06:35:44;100366.97;;;19.96;91.17
14117;BME280;7137;51.436;6.544;2023-07-29T06:38:45;100369.69;;;20.97;89.20
14117;BME280;7137;51.436;6.544;2023-07-29T06:41:47;100365.16;;;21.95;81.81
14117;BME280;7137;51.436;6.544;2023-07-29T06:44:50;100360.84;;;22.15;78.33
14117;BME280;7137;51.436;6.544;2023-07-29T06:47:51;100364.00;;;23.79;75.52
14117;BME280;7137;51.436;6.544;2023-07-29T06:50:53;100368.19;;;24.85;65.25
14117;BME280;7137;51.436;6.544;2023-07-29T06:53:55;100371.16;;;25.09;66.17
14117;BME280;7137;51.436;6.544;2023-07-29T06:56:57;100377.63;;;24.52;68.23
14117;BME280;7137;51.436;6.544;2023-07-29T07:00:01;100376.78;;;23.66;72.00
14117;BME280;7137;51.436;6.544;2023-07-29T07:03:02;100370.53;;;23.46;70.08
14117;BME280;7137;51.436;6.544;2023-07-29T07:06:04;100374.56;;;25.65;63.29
14117;BME280;7137;51.436;6.544;2023-07-29T07:09:06;100372.66;;;26.37;63.40
14117;BME280;7137;51.436;6.544;2023-07-29T07:12:08;100372.19;;;27.26;55.19
14117;BME280;7137;51.436;6.544;2023-07-29T07:15:11;100382.00;;;24.80;65.12
14117;BME280;7137;51.436;6.544;2023-07-29T07:18:12;100377.88;;;23.73;66.74
14117;BME280;7137;51.436;6.544;2023-07-29T07:21:14;100380.56;;;25.77;62.53
14117;BME280;7137;51.436;6.544;2023-07-29T07:24:15;100378.31;;;25.72;59.29
14117;BME280;7137;51.436;6.544;2023-07-29T07:27:17;100384.25;;;29.84;50.51
14117;BME280;7137;51.436;6.544;2023-07-29T07:30:20;100382.88;;;28.72;51.06
14117;BME280;7137;51.436;6.544;2023-07-29T07:33:21;100384.75;;;29.88;49.07
14117;BME280;7137;51.436;6.544;2023-07-29T07:36:23;100382.31;;;31.19;45.54
14117;BME280;7137;51.436;6.544;2023-07-29T07:39:25;100384.88;;;31.84;42.47
14117;BME280;7137;51.436;6.544;2023-07-29T07:42:26;100389.84;;;35.74;36.50
14117;BME280;7137;51.436;6.544;2023-07-29T07:45:29;100390.00;;;33.52;37.55
14117;BME280;7137;51.436;6.544;2023-07-29T07:48:31;100382.94;;;34.44;37.96
14117;BME280;7137;51.436;6.544;2023-07-29T07:51:33;100382.09;;;32.27;42.41
14117;BME280;7137;51.436;6.544;2023-07-29T07:54:35;100386.47;;;33.58;37.84
14117;BME280;7137;51.436;6.544;2023-07-29T07:57:36;100375.66;;;33.04;39.54
14117;BME280;7137;51.436;6.544;2023-07-29T08:00:39;100381.63;;;34.66;36.54
14117;BME280;7137;51.436;6.544;2023-07-29T08:03:41;100386.31;;;35.42;35.39
14117;BME280;7137;51.436;6.544;2023-07-29T08:06:42;100387.03;;;35.24;34.89
14117;BME280;7137;51.436;6.544;2023-07-29T08:09:44;100375.31;;;35.62;34.59
14117;BME280;7137;51.436;6.544;2023-07-29T08:12:46;100373.53;;;36.24;33.41
14117;BME280;7137;51.436;6.544;2023-07-29T08:15:49;100362.38;;;33.09;37.49
14117;BME280;7137;51.436;6.544;2023-07-29T08:18:51;100362.91;;;36.59;34.33
14117;BME280;7137;51.436;6.544;2023-07-29T08:21:53;100365.63;;;35.41;34.41
14117;BME280;7137;51.436;6.544;2023-07-29T08:24:54;100377.00;;;33.28;38.00
14117;BME280;7137;51.436;6.544;2023-07-29T08:27:56;100378.19;;;33.12;37.91
14117;BME280;7137;51.436;6.544;2023-07-29T08:30:59;100374.25;;;32.32;40.70
14117;BME280;7137;51.436;6.544;2023-07-29T08:34:00;100370.25;;;32.00;40.16
14117;BME280;7137;51.436;6.544;2023-07-29T08:37:02;100364.00;;;28.88;45.80
14117;BME280;7137;51.436;6.544;2023-07-29T08:40:04;100366.47;;;28.59;49.10
14117;BME280;7137;51.436;6.544;2023-07-29T08:43:06;100359.34;;;27.86;52.63
14117;BME280;7137;51.436;6.544;2023-07-29T08:46:09;100359.00;;;26.98;51.77
14117;BME280;7137;51.436;6.544;2023-07-29T08:49:12;100368.06;;;27.64;53.55
14117;BME280;7137;51.436;6.544;2023-07-29T08:52:14;100374.38;;;25.13;60.20
14117;BME280;7137;51.436;6.544;2023-07-29T08:55:16;100367.38;;;25.48;60.12
14117;BME280;7137;51.436;6.544;2023-07-29T08:58:18;100379.84;;;25.39;61.79
14117;BME280;7137;51.436;6.544;2023-07-29T09:01:22;100374.81;;;24.44;65.45
14117;BME280;7137;51.436;6.544;2023-07-29T09:04:24;100384.13;;;24.30;66.15
14117;BME280;7137;51.436;6.544;2023-07-29T09:07:26;100383.56;;;24.17;65.72
14117;BME280;7137;51.436;6.544;2023-07-29T09:10:28;100380.28;;;23.07;71.17
14117;BME280;7137;51.436;6.544;2023-07-29T09:13:30;100388.47;;;23.34;70.05
14117;BME280;7137;51.436;6.544;2023-07-29T09:16:33;100391.53;;;23.10;70.10
14117;BME280;7137;51.436;6.544;2023-07-29T09:19:34;100402.53;;;23.46;71.52
14117;BME280;7137;51.436;6.544;2023-07-29T09:22:36;100393.94;;;23.14;69.96
14117;BME280;7137;51.436;6.544;2023-07-29T09:25:39;100391.41;;;23.22;70.26
14117;BME280;7137;51.436;6.544;2023-07-29T09:28:40;100397.63;;;23.42;71.81
14117;BME280;7137;51.436;6.544;2023-07-29T09:31:43;100385.84;;;23.92;67.32
14117;BME280;7137;51.436;6.544;2023-07-29T09:34:45;100386.56;;;23.75;68.24
14117;BME280;7137;51.436;6.544;2023-07-29T09:37:46;100375.31;;;24.01;69.21
14117;BME280;7137;51.436;6.544;2023-07-29T09:40:49;100379.34;;;24.71;64.34
14117;BME280;7137;51.436;6.544;2023-07-29T09:43:55;100377.84;;;24.96;63.97
14117;BME280;7137;51.436;6.544;2023-07-29T09:46:59;100380.41;;;25.15;63.90
14117;BME280;7137;51.436;6.544;2023-07-29T09:50:01;100368.56;;;25.17;63.49
14117;BME280;7137;51.436;6.544;2023-07-29T09:53:03;100372.44;;;28.30;54.89
14117;BME280;7137;51.436;6.544;2023-07-29T09:56:04;100371.19;;;28.41;51.91
14117;BME280;7137;51.436;6.544;2023-07-29T09:59:06;100368.22;;;28.19;51.46
14117;BME280;7137;51.436;6.544;2023-07-29T10:02:13;100361.31;;;26.85;54.16
14117;BME280;7137;51.436;6.544;2023-07-29T10:05:16;100365.38;;;29.38;50.48
14117;BME280;7137;51.436;6.544;2023-07-29T10:08:18;100350.81;;;27.74;50.85
14117;BME280;7137;51.436;6.544;2023-07-29T10:11:21;100361.41;;;30.18;47.54
14117;BME280;7137;51.436;6.544;2023-07-29T10:14:27;100363.34;;;29.17;50.93
14117;BME280;7137;51.436;6.544;2023-07-29T10:17:31;100367.38;;;28.27;53.95
14117;BME280;7137;51.436;6.544;2023-07-29T10:20:35;100369.09;;;27.79;54.26
14117;BME280;7137;51.436;6.544;2023-07-29T10:23:40;100358.16;;;26.55;55.01
14117;BME280;7137;51.436;6.544;2023-07-29T10:26:46;100358.09;;;26.39;56.47
14117;BME280;7137;51.436;6.544;2023-07-29T10:29:49;100363.25;;;26.15;60.74
14117;BME280;7137;51.436;6.544;2023-07-29T10:32:53;100353.44;;;26.83;56.55
14117;BME280;7137;51.436;6.544;2023-07-29T10:35:54;100366.81;;;28.48;51.61
14117;BME280;7137;51.436;6.544;2023-07-29T10:38:56;100362.47;;;28.38;52.23
14117;BME280;7137;51.436;6.544;2023-07-29T10:41:59;100355.50;;;27.80;52.78
14117;BME280;7137;51.436;6.544;2023-07-29T10:45:17;100362.66;;;28.13;51.49
14117;BME280;7137;51.436;6.544;2023-07-29T10:48:41;100367.13;;;28.53;52.34
14117;BME280;7137;51.436;6.544;2023-07-29T10:51:43;100353.44;;;27.99;50.66
14117;BME280;7137;51.436;6.544;2023-07-29T10:54:47;100363.44;;;26.73;54.02
14117;BME280;7137;51.436;6.544;2023-07-29T10:57:48;100360.59;;;26.41;57.38
14117;BME280;7137;51.436;6.544;2023-07-29T11:00:50;100354.41;;;26.40;57.97
14117;BME280;7137;51.436;6.544;2023-07-29T11:04:24;100353.28;;;25.99;57.16
14117;BME280;7137;51.436;6.544;2023-07-29T11:07:27;100369.97;;;25.93;59.21
14117;BME280;7137;51.436;6.544;2023-07-29T11:10:42;100361.63;;;25.25;59.37
14117;BME280;7137;51.436;6.544;2023-07-29T11:13:44;100358.47;;;24.84;60.96
14117;BME280;7137;51.436;6.544;2023-07-29T11:16:49;100361.09;;;25.21;62.13
14117;BME280;7137;51.436;6.544;2023-07-29T11:19:52;100354.25;;;25.36;62.24
14117;BME280;7137;51.436;6.544;2023-07-29T11:22:56;100360.81;;;25.42;62.33
14117;BME280;7137;51.436;6.544;2023-07-29T11:25:57;100353.47;;;25.80;60.44
14117;BME280;7137;51.436;6.544;2023-07-29T11:29:00;100343.38;;;25.56;61.86
14117;BME280;7137;51.436;6.544;2023-07-29T11:32:02;100341.31;;;25.50;61.94
14117;BME280;7137;51.436;6.544;2023-07-29T11:35:06;100342.94;;;25.78;62.17
14117;BME280;7137;51.436;6.544;2023-07-29T11:38:14;100342.34;;;26.36;59.92
14117;BME280;7137;51.436;6.544;2023-07-29T11:41:20;100340.28;;;26.64;58.97
14117;BME280;7137;51.436;6.544;2023-07-29T11:44:23;100347.72;;;26.86;56.24
14117;BME280;7137;51.436;6.544;2023-07-29T11:47:25;100349.56;;;26.78;56.99
14117;BME280;7137;51.436;6.544;2023-07-29T11:50:28;100348.34;;;26.64;58.16
14117;BME280;7137;51.436;6.544;2023-07-29T11:53:30;100352.84;;;26.63;55.14
14117;BME280;7137;51.436;6.544;2023-07-29T11:56:32;100344.69;;;26.39;57.07
14117;BME280;7137;51.436;6.544;2023-07-29T11:59:34;100342.97;;;26.04;59.18
14117;BME280;7137;51.436;6.544;2023-07-29T12:02:38;100337.72;;;25.59;58.04
14117;BME280;7137;51.436;6.544;2023-07-29T12:05:41;100340.88;;;25.98;56.95
14117;BME280;7137;51.436;6.544;2023-07-29T12:08:43;100336.25;;;25.82;57.70
14117;BME280;7137;51.436;6.544;2023-07-29T12:11:45;100339.53;;;26.20;58.21
14117;BME280;7137;51.436;6.544;2023-07-29T12:14:47;100328.69;;;26.29;55.48
14117;BME280;7137;51.436;6.544;2023-07-29T12:17:48;100345.47;;;26.06;56.94
14117;BME280;7137;51.436;6.544;2023-07-29T12:20:51;100328.91;;;25.66;59.15
14117;BME280;7137;51.436;6.544;2023-07-29T12:23:53;100325.78;;;25.71;59.56
14117;BME280;7137;51.436;6.544;2023-07-29T12:26:54;100332.09;;;26.06;58.51
14117;BME280;7137;51.436;6.544;2023-07-29T12:29:56;100325.09;;;26.39;56.85
14117;BME280;7137;51.436;6.544;2023-07-29T12:32:59;100324.09;;;26.40;57.31
14117;BME280;7137;51.436;6.544;2023-07-29T12:36:02;100331.75;;;26.69;55.54
14117;BME280;7137;51.436;6.544;2023-07-29T12:39:04;100331.34;;;26.89;56.50
14117;BME280;7137;51.436;6.544;2023-07-29T12:42:06;100325.41;;;27.28;56.81
14117;BME280;7137;51.436;6.544;2023-07-29T12:45:08;100324.19;;;27.06;55.59
14117;BME280;7137;51.436;6.544;2023-07-29T12:48:11;100305.41;;;25.96;59.40
14117;BME280;7137;51.436;6.544;2023-07-29T12:51:14;100304.78;;;26.62;57.34
14117;BME280;7137;51.436;6.544;2023-07-29T12:54:16;100321.09;;;26.85;57.18
14117;BME280;7137;51.436;6.544;2023-07-29T12:57:17;100321.72;;;26.71;57.66
14117;BME280;7137;51.436;6.544;2023-07-29T13:00:19;100322.41;;;26.81;55.79
14117;BME280;7137;51.436;6.544;2023-07-29T13:03:20;100305.69;;;26.45;56.63
14117;BME280;7137;51.436;6.544;2023-07-29T13:06:23;100319.78;;;26.21;61.79
14117;BME280;7137;51.436;6.544;2023-07-29T13:09:25;100326.34;;;25.21;60.31
14117;BME280;7137;51.436;6.544;2023-07-29T13:12:27;100325.19;;;25.24;60.54
14117;BME280;7137;51.436;6.544;2023-07-29T13:15:28;100334.81;;;25.52;60.64
14117;BME280;7137;51.436;6.544;2023-07-29T13:18:30;100344.22;;;25.21;61.69
14117;BME280;7137;51.436;6.544;2023-07-29T13:21:33;100344.97;;;24.58;68.66
14117;BME280;7137;51.436;6.544;2023-07-29T13:24:35;100340.53;;;24.39;71.95
14117;BME280;7137;51.436;6.544;2023-07-29T13:27:36;100355.47;;;24.22;75.76
14117;BME280;7137;51.436;6.544;2023-07-29T13:30:38;100350.63;;;23.40;75.77
14117;BME280;7137;51.436;6.544;2023-07-29T13:33:40;100359.19;;;23.73;78.96
14117;BME280;7137;51.436;6.544;2023-07-29T13:36:42;100360.72;;;23.37;76.58
14117;BME280;7137;51.436;6.544;2023-07-29T13:39:44;100378.00;;;22.83;81.30
14117;BME280;7137;51.436;6.544;2023-07-29T13:42:46;100368.16;;;22.02;86.25
14117;BME280;7137;51.436;6.544;2023-07-29T13:45:47;100377.06;;;21.16;94.18
14117;BME280;7137;51.436;6.544;2023-07-29T13:48:50;100389.66;;;20.47;100.00
14117;BME280;7137;51.436;6.544;2023-07-29T13:51:53;100393.09;;;20.36;100.00
14117;BME280;7137;51.436;6.544;2023-07-29T13:54:54;100394.25;;;20.44;100.00
14117;BME280;7137;51.436;6.544;2023-07-29T13:57:56;100396.28;;;20.52;100.00
14117;BME280;7137;51.436;6.544;2023-07-29T14:00:57;100392.19;;;20.82;100.00
14117;BME280;7137;51.436;6.544;2023-07-29T14:03:59;100396.22;;;21.42;100.00
14117;BME280;7137;51.436;6.544;2023-07-29T14:07:02;100398.59;;;22.09;100.00
14117;BME280;7137;51.436;6.544;2023-07-29T14:10:05;100402.50;;;22.26;97.59
14117;BME280;7137;51.436;6.544;2023-07-29T14:13:07;100399.53;;;22.49;97.21
14117;BME280;7137;51.436;6.544;2023-07-29T14:16:08;100392.84;;;23.35;94.63
14117;BME280;7137;51.436;6.544;2023-07-29T14:19:10;100395.28;;;23.77;88.08
14117;BME280;7137;51.436;6.544;2023-07-29T14:22:13;100399.19;;;23.54;91.52
14117;BME280;7137;51.436;6.544;2023-07-29T14:25:14;100393.22;;;23.21;90.28
14117;BME280;7137;51.436;6.544;2023-07-29T14:28:16;100385.38;;;22.79;90.78
14117;BME280;7137;51.436;6.544;2023-07-29T14:31:18;100382.50;;;22.62;91.82
14117;BME280;7137;51.436;6.544;2023-07-29T14:34:19;100375.50;;;22.30;93.98
14117;BME280;7137;51.436;6.544;2023-07-29T14:37:22;100384.41;;;22.50;90.34
14117;BME280;7137;51.436;6.544;2023-07-29T14:40:24;100383.75;;;22.27;92.00
14117;BME280;7137;51.436;6.544;2023-07-29T14:43:25;100389.91;;;22.28;93.22
14117;BME280;7137;51.436;6.544;2023-07-29T14:46:27;100381.31;;;22.45;95.60
14117;BME280;7137;51.436;6.544;2023-07-29T14:49:28;100377.50;;;22.68;96.55
14117;BME280;7137;51.436;6.544;2023-07-29T14:52:32;100380.13;;;22.59;93.75
14117;BME280;7137;51.436;6.544;2023-07-29T14:55:33;100389.56;;;22.21;94.40
14117;BME280;7137;51.436;6.544;2023-07-29T14:58:35;100382.13;;;22.66;93.34
14117;BME280;7137;51.436;6.544;2023-07-29T15:01:36;100385.50;;;22.78;93.73
14117;BME280;7137;51.436;6.544;2023-07-29T15:04:38;100383.44;;;22.81;93.35
14117;BME280;7137;51.436;6.544;2023-07-29T15:07:41;100383.09;;;22.14;95.60
14117;BME280;7137;51.436;6.544;2023-07-29T15:10:45;100373.97;;;22.37;92.89
14117;BME280;7137;51.436;6.544;2023-07-29T15:13:46;100381.50;;;22.53;90.82
14117;BME280;7137;51.436;6.544;2023-07-29T15:16:48;100378.63;;;22.75;87.56
14117;BME280;7137;51.436;6.544;2023-07-29T15:19:49;100377.13;;;23.23;87.07
14117;BME280;7137;51.436;6.544;2023-07-29T15:22:52;100369.31;;;23.69;84.13
14117;BME280;7137;51.436;6.544;2023-07-29T15:25:54;100372.78;;;24.09;81.49
14117;BME280;7137;51.436;6.544;2023-07-29T15:28:58;100383.28;;;24.39;76.45
14117;BME280;7137;51.436;6.544;2023-07-29T15:32:00;100386.56;;;24.61;76.76
14117;BME280;7137;51.436;6.544;2023-07-29T15:35:01;100379.28;;;23.87;78.42
14117;BME280;7137;51.436;6.544;2023-07-29T15:38:05;100378.28;;;23.97;78.76
14117;BME280;7137;51.436;6.544;2023-07-29T15:41:07;100366.88;;;24.15;76.65
14117;BME280;7137;51.436;6.544;2023-07-29T15:44:08;100362.13;;;23.99;77.15
14117;BME280;7137;51.436;6.544;2023-07-29T15:47:10;100366.47;;;24.00;79.70
14117;BME280;7137;51.436;6.544;2023-07-29T15:50:13;100356.69;;;23.81;76.79
14117;BME280;7137;51.436;6.544;2023-07-29T15:53:16;100354.41;;;23.48;80.56
14117;BME280;7137;51.436;6.544;2023-07-29T15:56:18;100360.84;;;23.45;79.55
14117;BME280;7137;51.436;6.544;2023-07-29T15:59:20;100368.31;;;23.51;78.32
14117;BME280;7137;51.436;6.544;2023-07-29T16:02:23;100371.94;;;23.40;79.02